aviador You're here:

YAMB Decoded Metar

AMBERLEY in _UNIDENTIFIED
Report Time2018-06-25 11:30:00
UTC Time2018-06-25 11:51:53
Flight Rules vfr VFR
Wind120° at 05 kt
W.Decomp.*RWY 15: 3.8 kt HW 3.3 kt LCW
RWY 04: 1.8 kt HW 4.7 kt RCW
W.Rank120° ranks 22
Current wind is below 120° avg. (6.9)
Visibility9999 m
Phenomena:N/A
Clouds:N/A
Expected CloudBase > 800 ft AGL from Temp-Dew spread
CeilingNone
Temp11°C (ISA -4)
Dew Point09°C (88% RH)
AAT9.0°C
QNH1028 hPa
Density Alt-715 ft
Elevation92 ft
Report Wrong Elevation
Raw Report
YAMB 251130Z AUTO 12005KT 9999 // NCD 11/09 Q1028=

Extra information for YAMB:More info

Metar Taf Metar & Taf Last 4 Metars F.Rules Stats Wind Profile Meteogram Temp Stats Airport Information Weather charts Add Link Nearby VenuesMetar ALERT Operation Metar Decoded Social comments